Time;durP1;ratioP1;P1;durP2;ratioP2;P2;SDS_P1;SDS_P2;PMS_P1;PMS_P2;Temp;Humidity;BMP_temperature;BMP_pressure;BME280_temperature;BME280_humidity;BME280_pressure;Samples;Min_cycle;Max_cycle;Signal;HPM_P1;HPM_P2
2022/12/14 03:10:08;;;;;;;;;;;22.80;28.50;;;;;;5065844;28;19947;-70
2022/12/14 03:12:34;;;;;;;;;;;22.90;28.20;;;;;;5062333;28;19973;-70
2022/12/14 03:15:01;;;;;;;;;;;22.90;28.10;;;;;;5074266;28;19915;-70
2022/12/14 03:17:28;;;;;;;;;;;22.90;27.30;;;;;;5059732;28;20000;-70
2022/12/14 03:19:54;;;;;;;;;;;22.90;27.40;;;;;;5072717;28;19916;-70
2022/12/14 03:22:28;;;;;;;;;;;23.00;29.20;;;;;;5073652;28;19991;-70
2022/12/14 03:24:57;;;;;;;;;;;22.90;27.00;;;;;;5073623;28;19909;-70
2022/12/14 03:27:25;;;;;;;;;;;22.90;28.50;;;;;;5071110;28;19916;-71
2022/12/14 03:29:52;;;;;;;;;;;22.90;28.20;;;;;;5071471;28;19908;-71
2022/12/14 03:32:19;;;;;;;;;;;22.80;28.80;;;;;;5071570;28;20390;-71
2022/12/14 03:34:51;;;;;;;;;;;22.80;29.50;;;;;;5068390;28;20425;-69
2022/12/14 03:37:26;;;;;;;;;;;22.90;26.60;;;;;;5068540;28;19913;-71
2022/12/14 03:39:53;;;;;;;;;;;22.90;26.80;;;;;;5067079;28;19964;-71
2022/12/14 03:42:26;;;;;;;;;;;23.00;27.40;;;;;;5079057;28;19938;-72
2022/12/14 03:44:53;;;;;;;;;;;23.00;27.60;;;;;;5058057;28;19913;-72
2022/12/14 03:47:25;;;;;;;;;;;23.00;27.10;;;;;;5063078;28;19920;-71
2022/12/14 03:49:55;;;;;;;;;;;23.10;26.70;;;;;;5068643;28;19977;-71
2022/12/14 03:52:31;;;;;;;;;;;23.20;26.80;;;;;;5065017;28;19918;-71
2022/12/14 03:55:00;;;;;;;;;;;23.10;27.30;;;;;;5073287;28;19912;-71
2022/12/14 03:57:39;;;;;;;;;;;23.20;28.20;;;;;;5065197;28;20282;-71
2022/12/14 04:00:07;;;;;;;;;;;23.20;26.30;;;;;;5071825;28;20001;-70
2022/12/14 04:02:52;;;;;;;;;;;23.10;28.00;;;;;;5072870;28;20481;-71
2022/12/14 04:05:25;;;;;;;;;;;23.30;26.60;;;;;;5066786;28;19913;-71
2022/12/14 04:08:04;;;;;;;;;;;23.20;26.70;;;;;;5067892;28;20443;-71
2022/12/14 04:32:19;;;;;;;;;;;23.30;28.10;;;;;;5062341;28;19919;-72
2022/12/14 04:34:47;;;;;;;;;;;23.30;26.70;;;;;;5068669;28;19908;-71
2022/12/14 04:37:14;;;;;;;;;;;23.30;27.40;;;;;;5069292;28;19942;-72
2022/12/14 04:39:41;;;;;;;;;;;23.30;28.00;;;;;;5068718;28;19921;-72
2022/12/14 04:42:07;;;;;;;;;;;23.30;26.50;;;;;;5071883;28;19983;-72
2022/12/14 04:44:38;;;;;;;;;;;23.20;26.40;;;;;;5070710;28;19986;-71
2022/12/14 04:47:05;;;;;;;;;;;23.30;27.50;;;;;;5069663;28;19917;-71
2022/12/14 04:49:35;;;;;;;;;;;23.30;27.10;;;;;;5082459;28;19909;-71
2022/12/14 04:52:05;;;;;;;;;;;23.30;27.30;;;;;;5036682;28;19948;-71
2022/12/14 04:54:33;;;;;;;;;;;23.30;27.40;;;;;;5071159;28;20014;-72
2022/12/14 04:57:02;;;;;;;;;;;23.20;28.00;;;;;;5060088;28;20355;-72
2022/12/14 04:59:29;;;;;;;;;;;23.20;27.90;;;;;;5065866;28;19927;-71
2022/12/14 05:02:01;;;;;;;;;;;23.30;28.30;;;;;;5066823;28;19912;-72
2022/12/14 05:04:41;;;;;;;;;;;23.30;27.80;;;;;;5067092;28;19978;-72
2022/12/14 05:07:11;;;;;;;;;;;23.30;28.10;;;;;;5066942;28;20025;-72
2022/12/14 05:09:38;;;;;;;;;;;23.30;28.30;;;;;;5069099;28;19923;-70
2022/12/14 05:12:07;;;;;;;;;;;23.30;27.40;;;;;;5070195;28;19908;-71
2022/12/14 05:14:38;;;;;;;;;;;23.30;28.20;;;;;;5068033;28;20748;-70
2022/12/14 05:17:05;;;;;;;;;;;23.30;28.00;;;;;;5068446;28;19908;-71
2022/12/14 05:19:32;;;;;;;;;;;23.30;28.50;;;;;;5081113;28;19931;-72
2022/12/14 05:22:00;;;;;;;;;;;23.20;28.20;;;;;;5070759;28;20020;-71
2022/12/14 05:24:27;;;;;;;;;;;23.20;29.40;;;;;;5066033;28;19912;-71
2022/12/14 05:26:53;;;;;;;;;;;23.10;28.60;;;;;;5069372;28;20342;-72
2022/12/14 05:29:20;;;;;;;;;;;23.10;29.80;;;;;;5069996;28;19920;-72
2022/12/14 05:31:46;;;;;;;;;;;23.10;29.30;;;;;;5067620;28;19921;-72
2022/12/14 05:34:13;;;;;;;;;;;23.10;30.40;;;;;;5063753;28;19952;-72
2022/12/14 05:36:40;;;;;;;;;;;23.20;29.60;;;;;;5071512;28;19920;-72
2022/12/14 05:39:06;;;;;;;;;;;23.20;29.00;;;;;;5071868;28;20070;-73
2022/12/14 05:41:33;;;;;;;;;;;23.10;28.90;;;;;;5071361;28;19960;-73
2022/12/14 05:43:59;;;;;;;;;;;23.10;29.30;;;;;;5064450;28;19920;-72
2022/12/14 05:46:26;;;;;;;;;;;23.20;29.70;;;;;;5071023;28;19915;-72
2022/12/14 05:48:53;;;;;;;;;;;23.10;29.80;;;;;;5071218;28;20014;-70
2022/12/14 05:51:19;;;;;;;;;;;23.10;29.80;;;;;;5075032;28;19913;-72
2022/12/14 05:53:46;;;;;;;;;;;23.10;30.00;;;;;;5074409;28;20003;-73
2022/12/14 05:56:13;;;;;;;;;;;23.00;29.60;;;;;;5075240;28;19913;-72
2022/12/14 05:58:39;;;;;;;;;;;23.00;29.70;;;;;;5075381;28;19928;-72
2022/12/14 06:01:07;;;;;;;;;;;23.10;29.00;;;;;;5072058;28;20329;-70
2022/12/14 06:03:34;;;;;;;;;;;23.00;30.00;;;;;;5067953;28;20278;-70
2022/12/14 06:06:04;;;;;;;;;;;23.00;30.40;;;;;;5063038;28;19919;-67
2022/12/14 06:08:31;;;;;;;;;;;23.00;30.20;;;;;;5075252;28;19915;-71
2022/12/14 06:11:05;;;;;;;;;;;23.00;29.50;;;;;;5071350;28;19919;-74
2022/12/14 06:13:31;;;;;;;;;;;22.90;31.30;;;;;;5061781;28;19908;-74
2022/12/14 06:16:11;;;;;;;;;;;22.80;30.70;;;;;;5063547;28;19967;-73
2022/12/14 06:18:44;;;;;;;;;;;22.80;30.30;;;;;;5062229;28;19916;-74
2022/12/14 06:21:11;;;;;;;;;;;22.80;29.50;;;;;;5061259;28;19959;-71
2022/12/14 06:23:38;;;;;;;;;;;22.80;29.90;;;;;;5066550;28;19924;-70
2022/12/14 06:26:05;;;;;;;;;;;22.80;30.00;;;;;;5063344;28;19955;-71
2022/12/14 06:28:32;;;;;;;;;;;22.80;30.90;;;;;;5067181;28;20458;-70
2022/12/14 06:30:59;;;;;;;;;;;22.70;30.50;;;;;;5066896;28;19960;-68
2022/12/14 06:33:25;;;;;;;;;;;22.80;30.40;;;;;;5068626;28;20056;-69
2022/12/14 06:35:52;;;;;;;;;;;22.70;30.00;;;;;;5064428;28;19947;-69
2022/12/14 06:38:19;;;;;;;;;;;22.60;30.10;;;;;;5064419;28;19999;-70
2022/12/14 06:40:45;;;;;;;;;;;22.50;30.00;;;;;;5058204;28;19917;-71
2022/12/14 06:43:12;;;;;;;;;;;22.40;30.50;;;;;;5066329;28;20270;-70
2022/12/14 06:45:39;;;;;;;;;;;22.40;32.00;;;;;;5066623;28;20425;-71
2022/12/14 06:48:06;;;;;;;;;;;22.30;30.60;;;;;;5064829;28;19916;-71
2022/12/14 06:50:32;;;;;;;;;;;22.30;30.70;;;;;;5069959;28;20342;-70
2022/12/14 06:52:59;;;;;;;;;;;22.30;30.30;;;;;;5069987;28;19916;-67
2022/12/14 06:55:25;;;;;;;;;;;22.20;30.30;;;;;;5063430;28;19955;-69
2022/12/14 06:57:52;;;;;;;;;;;22.30;30.70;;;;;;5069332;28;19919;-70
2022/12/14 07:00:19;;;;;;;;;;;22.20;30.30;;;;;;5062117;28;19927;-71
2022/12/14 07:02:46;;;;;;;;;;;22.20;31.50;;;;;;5063477;28;19924;-72
2022/12/14 07:05:13;;;;;;;;;;;22.20;31.20;;;;;;5070654;28;19916;-72
2022/12/14 07:07:39;;;;;;;;;;;22.20;31.80;;;;;;5065762;28;19912;-71
2022/12/14 07:10:07;;;;;;;;;;;22.10;30.80;;;;;;5069303;28;19972;-70
2022/12/14 07:12:33;;;;;;;;;;;22.00;30.30;;;;;;5069291;28;19908;-69
2022/12/14 07:17:25;;;;;;;;;;;22.00;31.10;;;;;;5058348;28;20397;-68
2022/12/14 07:19:52;;;;;;;;;;;22.00;31.70;;;;;;5058464;28;19978;-69
2022/12/14 07:22:19;;;;;;;;;;;22.00;31.40;;;;;;5063541;28;19974;-70
2022/12/14 07:24:45;;;;;;;;;;;21.90;31.70;;;;;;5064668;28;19923;-71
2022/12/14 07:27:12;;;;;;;;;;;21.80;31.60;;;;;;5070606;28;20018;-69
2022/12/14 07:29:38;;;;;;;;;;;21.70;32.10;;;;;;5064009;28;19923;-70
2022/12/14 07:32:05;;;;;;;;;;;21.70;32.60;;;;;;5066557;28;20026;-69
2022/12/14 07:34:32;;;;;;;;;;;21.70;31.90;;;;;;5070147;28;19917;-70
2022/12/14 07:36:58;;;;;;;;;;;21.70;32.40;;;;;;5054835;28;19924;-70
2022/12/14 07:39:25;;;;;;;;;;;21.70;31.90;;;;;;5059091;28;19917;-69
2022/12/14 07:41:53;;;;;;;;;;;21.60;31.70;;;;;;5061278;28;19970;-69
2022/12/14 07:44:20;;;;;;;;;;;21.60;32.30;;;;;;5061524;28;19912;-72
2022/12/14 07:46:46;;;;;;;;;;;21.70;32.50;;;;;;5069828;28;19964;-71
2022/12/14 07:49:13;;;;;;;;;;;21.70;32.40;;;;;;5066286;28;20014;-71
2022/12/14 07:51:48;;;;;;;;;;;21.70;32.30;;;;;;5069359;28;20359;-71
2022/12/14 07:54:15;;;;;;;;;;;21.60;31.90;;;;;;5060249;28;19916;-70
2022/12/14 07:56:42;;;;;;;;;;;21.60;32.80;;;;;;5056607;28;19936;-70
2022/12/14 07:59:10;;;;;;;;;;;21.50;32.60;;;;;;5062492;28;20451;-72
2022/12/14 08:01:37;;;;;;;;;;;21.50;32.60;;;;;;5064554;28;19916;-71
2022/12/14 08:04:04;;;;;;;;;;;21.50;32.80;;;;;;5067577;28;20291;-72
2022/12/14 08:06:31;;;;;;;;;;;21.40;32.80;;;;;;5069524;28;19923;-72
2022/12/14 08:08:58;;;;;;;;;;;21.40;33.00;;;;;;5064253;28;20431;-71
2022/12/14 08:11:24;;;;;;;;;;;21.40;32.50;;;;;;5061987;28;19921;-72
2022/12/14 08:13:58;;;;;;;;;;;21.30;32.40;;;;;;5053422;28;19913;-72
